Time,TemperatureF,DewpointF,PressureIn,WindDirection,WindDirectionDegrees,WindSpeedMPH,WindSpeedGustMPH,Humidity,HourlyPrecipIn,Conditions,Clouds,dailyrainin,SolarRadiationWatts/m^2,SoftwareType,DateUTC
2013-02-01 00:01:00,47.0,39.0,-100.00,WSW,237,4.0,8.0,73,0.00,,,0.00,0.000000,,2013-02-01 08:01:00,
2013-02-01 00:32:00,46.0,37.0,-100.00,WSW,255,5.0,8.0,72,0.00,,,-99.99,0.000000,,2013-02-01 08:32:00,
2013-02-01 00:42:00,46.0,37.0,-100.00,WSW,255,5.0,8.0,72,0.00,,,-99.99,0.000000,,2013-02-01 08:42:00,
2013-02-01 00:52:00,46.0,37.0,-100.00,WSW,255,5.0,8.0,72,0.00,,,-99.99,0.000000,,2013-02-01 08:52:00,
2013-02-01 01:01:00,46.0,37.0,-100.00,WSW,255,5.0,8.0,72,0.00,,,-99.99,0.000000,,2013-02-01 09:01:00,
2013-02-01 01:32:00,46.0,37.0,-100.00,WSW,242,4.0,9.0,70,0.00,,,0.00,0.000000,,2013-02-01 09:32:00,
2013-02-01 01:42:00,46.0,37.0,-100.00,WSW,242,4.0,9.0,70,0.00,,,0.00,0.000000,,2013-02-01 09:42:00,
2013-02-01 01:52:00,46.0,37.0,-100.00,WSW,242,4.0,9.0,70,0.00,,,0.00,0.000000,,2013-02-01 09:52:00,
2013-02-01 02:01:00,46.0,37.0,-100.00,WSW,242,4.0,9.0,70,0.00,,,0.00,0.000000,,2013-02-01 10:01:00,
2013-02-01 02:21:00,44.0,36.0,-100.00,SW,222,3.0,8.0,74,0.00,,,0.00,0.000000,,2013-02-01 10:21:00,
2013-02-01 02:32:00,44.0,36.0,-100.00,SW,222,3.0,8.0,74,0.00,,,0.00,0.000000,,2013-02-01 10:32:00,
2013-02-01 02:43:00,44.0,36.0,-100.00,SW,222,3.0,8.0,74,0.00,,,0.00,0.000000,,2013-02-01 10:43:00,
2013-02-01 02:53:00,44.0,36.0,-100.00,SW,222,3.0,8.0,74,0.00,,,0.00,0.000000,,2013-02-01 10:53:00,
2013-02-01 03:01:00,44.0,36.0,-100.00,SW,222,3.0,8.0,74,0.00,,,0.00,0.000000,,2013-02-01 11:01:00,
2013-02-01 03:32:00,44.0,35.0,-100.00,WSW,243,4.0,9.0,71,0.00,,,0.00,0.000000,,2013-02-01 11:32:00,
2013-02-01 03:42:00,44.0,35.0,-100.00,WSW,243,4.0,9.0,71,0.00,,,0.00,0.000000,,2013-02-01 11:42:00,
2013-02-01 03:53:00,44.0,35.0,-100.00,WSW,243,4.0,9.0,71,0.00,,,0.00,0.000000,,2013-02-01 11:53:00,
2013-02-01 04:02:00,44.0,35.0,-100.00,WSW,243,4.0,9.0,71,0.00,,,0.00,0.000000,,2013-02-01 12:02:00,
2013-02-01 04:32:00,43.0,35.0,-100.00,SW,224,4.0,10.0,73,0.00,,,0.00,0.000000,,2013-02-01 12:32:00,
2013-02-01 04:42:00,43.0,35.0,-100.00,SW,224,4.0,10.0,73,0.00,,,0.00,0.000000,,2013-02-01 12:42:00,
2013-02-01 04:52:00,43.0,35.0,-100.00,SW,224,4.0,10.0,73,0.00,,,0.00,0.000000,,2013-02-01 12:52:00,
2013-02-01 05:01:00,43.0,35.0,-100.00,SW,224,4.0,10.0,73,0.00,,,0.00,0.000000,,2013-02-01 13:01:00,
2013-02-01 05:33:00,42.0,34.0,-100.00,SW,230,4.0,10.0,72,0.00,,,0.00,0.000000,,2013-02-01 13:33:00,
2013-02-01 05:42:00,42.0,34.0,-100.00,SW,230,4.0,10.0,72,0.00,,,0.00,0.000000,,2013-02-01 13:42:00,
2013-02-01 05:53:00,42.0,34.0,-100.00,SW,230,4.0,10.0,72,0.00,,,0.00,0.000000,,2013-02-01 13:53:00,
2013-02-01 06:02:00,42.0,34.0,-100.00,SW,230,4.0,10.0,72,0.00,,,0.00,0.000000,,2013-02-01 14:02:00,
2013-02-01 06:32:00,41.0,33.0,-100.00,SW,229,4.0,9.0,73,0.00,,,0.00,0.000000,,2013-02-01 14:32:00,
2013-02-01 06:42:00,41.0,33.0,-100.00,SW,229,4.0,9.0,73,0.00,,,0.00,0.000000,,2013-02-01 14:42:00,
2013-02-01 06:52:00,41.0,33.0,-100.00,SW,229,4.0,9.0,73,0.00,,,0.00,0.000000,,2013-02-01 14:52:00,
2013-02-01 07:01:00,41.0,33.0,-100.00,SW,229,4.0,9.0,73,0.00,,,0.00,0.000000,,2013-02-01 15:01:00,
2013-02-01 07:33:00,42.0,33.0,-100.00,SW,235,5.0,10.0,71,0.00,,,0.00,0.000000,,2013-02-01 15:33:00,
2013-02-01 07:42:00,42.0,33.0,-100.00,SW,235,5.0,10.0,71,0.00,,,0.00,0.000000,,2013-02-01 15:42:00,
2013-02-01 07:52:00,42.0,33.0,-100.00,SW,235,5.0,10.0,71,0.00,,,0.00,0.000000,,2013-02-01 15:52:00,
2013-02-01 08:02:00,42.0,33.0,-100.00,SW,235,5.0,10.0,71,0.00,,,0.00,0.000000,,2013-02-01 16:02:00,
2013-02-01 08:33:00,42.0,34.0,-100.00,SSW,213,4.0,9.0,74,0.00,,,0.00,22.000000,,2013-02-01 16:33:00,
2013-02-01 08:43:00,42.0,34.0,-100.00,SSW,213,4.0,9.0,74,0.00,,,0.00,22.000000,,2013-02-01 16:43:00,
2013-02-01 08:52:00,42.0,34.0,-100.00,SSW,213,4.0,9.0,74,0.00,,,0.00,22.000000,,2013-02-01 16:52:00,
2013-02-01 09:01:00,42.0,34.0,-100.00,SSW,213,4.0,9.0,74,0.00,,,0.00,22.000000,,2013-02-01 17:01:00,
2013-02-01 09:32:00,49.0,34.0,-100.00,WSW,252,4.0,10.0,57,0.00,,,0.00,223.000000,,2013-02-01 17:32:00,
2013-02-01 09:42:00,49.0,34.0,-100.00,WSW,252,4.0,10.0,57,0.00,,,0.00,223.000000,,2013-02-01 17:42:00,
2013-02-01 09:53:00,49.0,34.0,-100.00,WSW,252,4.0,10.0,57,0.00,,,0.00,223.000000,,2013-02-01 17:53:00,
2013-02-01 10:02:00,49.0,34.0,-100.00,WSW,252,4.0,10.0,57,0.00,,,0.00,223.000000,,2013-02-01 18:02:00,
2013-02-01 10:32:00,55.0,37.0,-100.00,SSW,193,3.0,8.0,51,0.00,,,0.00,337.000000,,2013-02-01 18:32:00,
2013-02-01 10:42:00,55.0,37.0,-100.00,SSW,193,3.0,8.0,51,0.00,,,0.00,337.000000,,2013-02-01 18:42:00,
2013-02-01 10:53:00,55.0,37.0,-100.00,SSW,193,3.0,8.0,51,0.00,,,0.00,337.000000,,2013-02-01 18:53:00,
2013-02-01 11:02:00,55.0,37.0,-100.00,SSW,193,3.0,8.0,51,0.00,,,0.00,337.000000,,2013-02-01 19:02:00,
2013-02-01 11:32:00,65.0,38.0,-100.00,South,170,0.0,4.0,37,0.00,,,0.00,493.000000,,2013-02-01 19:32:00,
2013-02-01 11:42:00,65.0,38.0,-100.00,South,170,0.0,4.0,37,0.00,,,0.00,493.000000,,2013-02-01 19:42:00,
2013-02-01 11:52:00,65.0,38.0,-100.00,South,170,0.0,4.0,37,0.00,,,0.00,493.000000,,2013-02-01 19:52:00,
2013-02-01 12:01:00,65.0,38.0,-100.00,South,170,0.0,4.0,37,0.00,,,0.00,493.000000,,2013-02-01 20:01:00,
2013-02-01 12:22:00,70.0,37.0,-100.00,East,100,2.0,6.0,30,0.00,,,0.00,612.000000,,2013-02-01 20:22:00,
2013-02-01 12:32:00,70.0,37.0,-100.00,East,100,2.0,6.0,30,0.00,,,0.00,612.000000,,2013-02-01 20:32:00,
2013-02-01 12:42:00,70.0,37.0,-100.00,East,100,2.0,6.0,30,0.00,,,0.00,612.000000,,2013-02-01 20:42:00,
2013-02-01 12:52:00,70.0,37.0,-100.00,East,100,2.0,6.0,30,0.00,,,0.00,612.000000,,2013-02-01 20:52:00,
2013-02-01 13:01:00,70.0,37.0,-100.00,East,100,2.0,6.0,30,0.00,,,0.00,612.000000,,2013-02-01 21:01:00,
2013-02-01 13:32:00,72.0,36.0,-100.00,ESE,105,4.0,8.0,27,-99.99,,,0.00,563.000000,,2013-02-01 21:32:00,
2013-02-01 13:42:00,72.0,36.0,-100.00,ESE,105,4.0,8.0,27,-99.99,,,0.00,563.000000,,2013-02-01 21:42:00,
2013-02-01 13:52:00,72.0,36.0,-100.00,ESE,105,4.0,8.0,27,-99.99,,,0.00,563.000000,,2013-02-01 21:52:00,
2013-02-01 14:01:00,72.0,36.0,-100.00,ESE,105,4.0,8.0,27,-99.99,,,0.00,563.000000,,2013-02-01 22:01:00,
2013-02-01 14:32:00,73.0,38.0,-100.00,East,94,5.0,7.0,28,0.00,,,-99.99,561.000000,,2013-02-01 22:32:00,
2013-02-01 14:42:00,73.0,38.0,-100.00,East,94,5.0,7.0,28,0.00,,,-99.99,561.000000,,2013-02-01 22:42:00,
2013-02-01 14:52:00,73.0,38.0,-100.00,East,94,5.0,7.0,28,0.00,,,-99.99,561.000000,,2013-02-01 22:52:00,
2013-02-01 15:01:00,73.0,38.0,-100.00,East,94,5.0,7.0,28,0.00,,,-99.99,561.000000,,2013-02-01 23:01:00,
2013-02-01 15:32:00,73.0,42.0,-100.00,SE,145,2.0,6.0,33,0.00,,,0.00,428.000000,,2013-02-01 23:32:00,
2013-02-01 15:42:00,73.0,42.0,-100.00,SE,145,2.0,6.0,33,0.00,,,0.00,428.000000,,2013-02-01 23:42:00,
2013-02-01 15:52:00,73.0,42.0,-100.00,SE,145,2.0,6.0,33,0.00,,,0.00,428.000000,,2013-02-01 23:52:00,
2013-02-01 16:01:00,73.0,42.0,-100.00,SE,145,2.0,6.0,33,0.00,,,0.00,428.000000,,2013-02-02 00:01:00,
2013-02-01 16:32:00,68.0,47.0,-100.00,WSW,241,2.0,4.0,47,-99.99,,,0.00,236.000000,,2013-02-02 00:32:00,
2013-02-01 16:42:00,68.0,47.0,-100.00,WSW,241,2.0,4.0,47,-99.99,,,0.00,236.000000,,2013-02-02 00:42:00,
2013-02-01 16:52:00,68.0,47.0,-100.00,WSW,241,2.0,4.0,47,-99.99,,,0.00,236.000000,,2013-02-02 00:52:00,
2013-02-01 17:01:00,68.0,47.0,-100.00,WSW,241,2.0,4.0,47,-99.99,,,0.00,236.000000,,2013-02-02 01:01:00,
2013-02-01 17:32:00,62.0,47.0,-100.00,WSW,245,2.0,4.0,59,-99.99,,,0.00,82.000000,,2013-02-02 01:32:00,
2013-02-01 17:42:00,62.0,47.0,-100.00,WSW,245,2.0,4.0,59,-99.99,,,0.00,82.000000,,2013-02-02 01:42:00,
2013-02-01 17:52:00,62.0,47.0,-100.00,WSW,245,2.0,4.0,59,-99.99,,,0.00,82.000000,,2013-02-02 01:52:00,
2013-02-01 18:01:00,62.0,47.0,-100.00,WSW,245,2.0,4.0,59,-99.99,,,0.00,82.000000,,2013-02-02 02:01:00,
2013-02-01 18:32:00,56.0,45.0,-100.00,SW,229,1.0,3.0,66,0.00,,,0.00,9.000000,,2013-02-02 02:32:00,
2013-02-01 18:42:00,56.0,45.0,-100.00,SW,229,1.0,3.0,66,0.00,,,0.00,9.000000,,2013-02-02 02:42:00,
2013-02-01 18:52:00,56.0,45.0,-100.00,SW,229,1.0,3.0,66,0.00,,,0.00,9.000000,,2013-02-02 02:52:00,
2013-02-01 19:02:00,56.0,45.0,-100.00,SW,229,1.0,3.0,66,0.00,,,0.00,9.000000,,2013-02-02 03:02:00,
2013-02-01 19:22:00,52.0,43.0,-100.00,WSW,240,0.0,2.0,72,0.00,,,0.00,0.000000,,2013-02-02 03:22:00,
2013-02-01 19:32:00,52.0,43.0,-100.00,WSW,240,0.0,2.0,72,0.00,,,0.00,0.000000,,2013-02-02 03:32:00,
2013-02-01 19:42:00,52.0,43.0,-100.00,WSW,240,0.0,2.0,72,0.00,,,0.00,0.000000,,2013-02-02 03:42:00,
2013-02-01 19:52:00,52.0,43.0,-100.00,WSW,240,0.0,2.0,72,0.00,,,0.00,0.000000,,2013-02-02 03:52:00,
2013-02-01 20:01:00,52.0,43.0,-100.00,WSW,240,0.0,2.0,72,0.00,,,0.00,0.000000,,2013-02-02 04:01:00,
2013-02-01 20:32:00,49.0,43.0,-100.00,SW,234,0.0,2.0,79,0.00,,,0.00,0.000000,,2013-02-02 04:32:00,
2013-02-01 20:42:00,49.0,43.0,-100.00,SW,234,0.0,2.0,79,0.00,,,0.00,0.000000,,2013-02-02 04:42:00,
2013-02-01 20:52:00,49.0,43.0,-100.00,SW,234,0.0,2.0,79,0.00,,,0.00,0.000000,,2013-02-02 04:52:00,
2013-02-01 21:02:00,49.0,43.0,-100.00,SW,234,0.0,2.0,79,0.00,,,0.00,0.000000,,2013-02-02 05:02:00,
2013-02-01 21:33:00,48.0,41.0,-100.00,SW,228,1.0,4.0,77,0.00,,,0.00,0.000000,,2013-02-02 05:33:00,
2013-02-01 21:42:00,48.0,41.0,-100.00,SW,228,1.0,4.0,77,0.00,,,0.00,0.000000,,2013-02-02 05:42:00,
2013-02-01 21:52:00,48.0,41.0,-100.00,SW,228,1.0,4.0,77,0.00,,,0.00,0.000000,,2013-02-02 05:52:00,
2013-02-01 22:02:00,48.0,41.0,-100.00,SW,228,1.0,4.0,77,0.00,,,0.00,0.000000,,2013-02-02 06:02:00,
2013-02-01 22:22:00,49.0,40.0,-100.00,SW,232,3.0,7.0,70,0.00,,,0.00,0.000000,,2013-02-02 06:22:00,
2013-02-01 22:32:00,49.0,40.0,-100.00,SW,232,3.0,7.0,70,0.00,,,0.00,0.000000,,2013-02-02 06:32:00,
2013-02-01 22:42:00,49.0,40.0,-100.00,SW,232,3.0,7.0,70,0.00,,,0.00,0.000000,,2013-02-02 06:42:00,
2013-02-01 22:52:00,49.0,40.0,-100.00,SW,232,3.0,7.0,70,0.00,,,0.00,0.000000,,2013-02-02 06:52:00,
2013-02-01 23:01:00,49.0,40.0,-100.00,SW,232,3.0,7.0,70,0.00,,,0.00,0.000000,,2013-02-02 07:01:00,
2013-02-01 23:32:00,48.0,39.0,-100.00,SW,218,2.0,8.0,71,0.00,,,0.00,0.000000,,2013-02-02 07:32:00,
2013-02-01 23:42:00,48.0,39.0,-100.00,SW,218,2.0,8.0,71,0.00,,,0.00,0.000000,,2013-02-02 07:42:00,
2013-02-01 23:52:00,48.0,39.0,-100.00,SW,218,2.0,8.0,71,0.00,,,0.00,0.000000,,2013-02-02 07:52:00,